sensor_id;sensor_type;location;lat;lon;timestamp;P1;durP1;ratioP1;P2;durP2;ratioP2
74523;SDS011;63074;44.696;10.358;2023-01-19T00:02:24;57.05;;;23.20;;
74523;SDS011;63074;44.696;10.358;2023-01-19T00:04:50;48.63;;;22.38;;
74523;SDS011;63074;44.696;10.358;2023-01-19T00:07:16;49.10;;;22.08;;
74523;SDS011;63074;44.696;10.358;2023-01-19T00:09:42;53.45;;;22.23;;
74523;SDS011;63074;44.696;10.358;2023-01-19T00:12:09;46.42;;;21.38;;
74523;SDS011;63074;44.696;10.358;2023-01-19T00:14:35;52.63;;;23.10;;
74523;SDS011;63074;44.696;10.358;2023-01-19T00:17:01;48.22;;;21.35;;
74523;SDS011;63074;44.696;10.358;2023-01-19T00:19:28;50.63;;;21.02;;
74523;SDS011;63074;44.696;10.358;2023-01-19T00:21:54;46.83;;;20.95;;
74523;SDS011;63074;44.696;10.358;2023-01-19T00:24:20;52.35;;;22.50;;
74523;SDS011;63074;44.696;10.358;2023-01-19T00:26:47;54.33;;;23.48;;
74523;SDS011;63074;44.696;10.358;2023-01-19T00:29:13;55.15;;;23.33;;
74523;SDS011;63074;44.696;10.358;2023-01-19T00:31:43;58.97;;;23.92;;
74523;SDS011;63074;44.696;10.358;2023-01-19T00:34:09;60.15;;;23.13;;
74523;SDS011;63074;44.696;10.358;2023-01-19T00:36:35;64.95;;;24.60;;
74523;SDS011;63074;44.696;10.358;2023-01-19T00:39:01;55.78;;;22.77;;
74523;SDS011;63074;44.696;10.358;2023-01-19T00:41:28;64.43;;;23.83;;
74523;SDS011;63074;44.696;10.358;2023-01-19T00:44:13;60.08;;;24.48;;
74523;SDS011;63074;44.696;10.358;2023-01-19T00:46:39;63.30;;;23.52;;
74523;SDS011;63074;44.696;10.358;2023-01-19T00:49:05;63.22;;;23.42;;
74523;SDS011;63074;44.696;10.358;2023-01-19T00:51:31;55.10;;;24.67;;
74523;SDS011;63074;44.696;10.358;2023-01-19T00:53:57;59.70;;;23.25;;
74523;SDS011;63074;44.696;10.358;2023-01-19T00:56:29;59.08;;;22.45;;
74523;SDS011;63074;44.696;10.358;2023-01-19T00:58:55;57.53;;;24.55;;
74523;SDS011;63074;44.696;10.358;2023-01-19T01:01:22;55.60;;;24.55;;
74523;SDS011;63074;44.696;10.358;2023-01-19T01:03:48;52.17;;;23.42;;
74523;SDS011;63074;44.696;10.358;2023-01-19T01:06:14;59.60;;;24.55;;
74523;SDS011;63074;44.696;10.358;2023-01-19T01:08:40;58.20;;;22.35;;
74523;SDS011;63074;44.696;10.358;2023-01-19T01:11:08;59.28;;;24.33;;
74523;SDS011;63074;44.696;10.358;2023-01-19T01:13:34;58.60;;;23.73;;
74523;SDS011;63074;44.696;10.358;2023-01-19T01:16:02;62.50;;;25.67;;
74523;SDS011;63074;44.696;10.358;2023-01-19T01:18:32;65.47;;;24.70;;
74523;SDS011;63074;44.696;10.358;2023-01-19T01:21:04;57.67;;;24.50;;
74523;SDS011;63074;44.696;10.358;2023-01-19T01:23:31;55.28;;;22.55;;
74523;SDS011;63074;44.696;10.358;2023-01-19T01:25:58;62.47;;;25.25;;
74523;SDS011;63074;44.696;10.358;2023-01-19T01:28:25;55.15;;;23.67;;
74523;SDS011;63074;44.696;10.358;2023-01-19T01:30:52;65.32;;;24.35;;
74523;SDS011;63074;44.696;10.358;2023-01-19T01:33:18;58.38;;;23.23;;
74523;SDS011;63074;44.696;10.358;2023-01-19T01:35:44;59.95;;;23.63;;
74523;SDS011;63074;44.696;10.358;2023-01-19T01:38:12;62.42;;;25.38;;
74523;SDS011;63074;44.696;10.358;2023-01-19T01:40:39;63.50;;;25.80;;
74523;SDS011;63074;44.696;10.358;2023-01-19T01:43:12;61.72;;;25.00;;
74523;SDS011;63074;44.696;10.358;2023-01-19T01:45:41;65.32;;;25.48;;
74523;SDS011;63074;44.696;10.358;2023-01-19T01:48:12;61.42;;;24.65;;
74523;SDS011;63074;44.696;10.358;2023-01-19T01:50:49;62.58;;;25.10;;
74523;SDS011;63074;44.696;10.358;2023-01-19T01:54:07;63.72;;;24.40;;
74523;SDS011;63074;44.696;10.358;2023-01-19T01:56:46;66.03;;;24.92;;
74523;SDS011;63074;44.696;10.358;2023-01-19T01:59:22;66.43;;;25.45;;
74523;SDS011;63074;44.696;10.358;2023-01-19T02:01:53;67.43;;;26.23;;
74523;SDS011;63074;44.696;10.358;2023-01-19T02:04:45;60.13;;;24.65;;
74523;SDS011;63074;44.696;10.358;2023-01-19T02:07:28;65.15;;;24.77;;
74523;SDS011;63074;44.696;10.358;2023-01-19T02:10:25;64.05;;;25.83;;
74523;SDS011;63074;44.696;10.358;2023-01-19T02:13:10;59.67;;;24.83;;
74523;SDS011;63074;44.696;10.358;2023-01-19T02:15:44;69.95;;;27.85;;
74523;SDS011;63074;44.696;10.358;2023-01-19T02:18:11;64.28;;;25.60;;
74523;SDS011;63074;44.696;10.358;2023-01-19T02:20:38;68.18;;;24.80;;
74523;SDS011;63074;44.696;10.358;2023-01-19T02:23:12;64.05;;;24.25;;
74523;SDS011;63074;44.696;10.358;2023-01-19T02:25:45;63.42;;;25.65;;
74523;SDS011;63074;44.696;10.358;2023-01-19T02:28:15;61.45;;;25.55;;
74523;SDS011;63074;44.696;10.358;2023-01-19T02:30:42;65.45;;;26.58;;
74523;SDS011;63074;44.696;10.358;2023-01-19T02:33:10;63.25;;;25.42;;
74523;SDS011;63074;44.696;10.358;2023-01-19T02:35:36;65.15;;;24.58;;
74523;SDS011;63074;44.696;10.358;2023-01-19T02:38:04;66.65;;;24.48;;
74523;SDS011;63074;44.696;10.358;2023-01-19T02:40:33;59.88;;;23.88;;
74523;SDS011;63074;44.696;10.358;2023-01-19T02:43:02;59.60;;;23.38;;
74523;SDS011;63074;44.696;10.358;2023-01-19T02:45:32;51.05;;;20.85;;
74523;SDS011;63074;44.696;10.358;2023-01-19T02:48:03;53.85;;;20.48;;
74523;SDS011;63074;44.696;10.358;2023-01-19T02:50:43;49.85;;;20.17;;
74523;SDS011;63074;44.696;10.358;2023-01-19T02:53:19;48.92;;;20.27;;
74523;SDS011;63074;44.696;10.358;2023-01-19T03:09:26;34.78;;;15.32;;
74523;SDS011;63074;44.696;10.358;2023-01-19T03:12:03;37.92;;;15.75;;
74523;SDS011;63074;44.696;10.358;2023-01-19T03:14:45;35.53;;;16.23;;
74523;SDS011;63074;44.696;10.358;2023-01-19T03:17:13;33.17;;;15.18;;
74523;SDS011;63074;44.696;10.358;2023-01-19T03:19:44;35.45;;;14.75;;
74523;SDS011;63074;44.696;10.358;2023-01-19T03:24:43;31.33;;;13.45;;
74523;SDS011;63074;44.696;10.358;2023-01-19T03:27:13;29.42;;;12.23;;
74523;SDS011;63074;44.696;10.358;2023-01-19T03:29:48;29.50;;;13.50;;
74523;SDS011;63074;44.696;10.358;2023-01-19T03:32:31;28.23;;;13.65;;
74523;SDS011;63074;44.696;10.358;2023-01-19T03:35:06;26.40;;;12.30;;
74523;SDS011;63074;44.696;10.358;2023-01-19T03:37:36;29.45;;;13.73;;
74523;SDS011;63074;44.696;10.358;2023-01-19T03:40:06;31.38;;;12.73;;
74523;SDS011;63074;44.696;10.358;2023-01-19T03:42:34;29.08;;;11.73;;
74523;SDS011;63074;44.696;10.358;2023-01-19T03:45:02;26.60;;;12.43;;
74523;SDS011;63074;44.696;10.358;2023-01-19T03:47:30;28.92;;;12.73;;
74523;SDS011;63074;44.696;10.358;2023-01-19T03:49:57;25.95;;;12.70;;
74523;SDS011;63074;44.696;10.358;2023-01-19T03:52:30;33.20;;;14.82;;
74523;SDS011;63074;44.696;10.358;2023-01-19T03:55:01;27.85;;;13.23;;
74523;SDS011;63074;44.696;10.358;2023-01-19T03:57:28;28.20;;;13.43;;
74523;SDS011;63074;44.696;10.358;2023-01-19T03:59:55;30.30;;;15.65;;
74523;SDS011;63074;44.696;10.358;2023-01-19T04:02:22;32.72;;;15.43;;
74523;SDS011;63074;44.696;10.358;2023-01-19T04:04:48;28.45;;;13.88;;
74523;SDS011;63074;44.696;10.358;2023-01-19T04:07:14;32.17;;;14.73;;
74523;SDS011;63074;44.696;10.358;2023-01-19T04:09:41;31.85;;;14.65;;
74523;SDS011;63074;44.696;10.358;2023-01-19T04:12:07;36.42;;;15.90;;
74523;SDS011;63074;44.696;10.358;2023-01-19T04:14:33;35.90;;;15.57;;
74523;SDS011;63074;44.696;10.358;2023-01-19T04:17:02;29.45;;;14.85;;
74523;SDS011;63074;44.696;10.358;2023-01-19T04:19:29;33.58;;;14.95;;
74523;SDS011;63074;44.696;10.358;2023-01-19T04:21:55;30.80;;;14.00;;
74523;SDS011;63074;44.696;10.358;2023-01-19T04:24:21;31.25;;;13.35;;
74523;SDS011;63074;44.696;10.358;2023-01-19T04:26:49;32.78;;;15.15;;
74523;SDS011;63074;44.696;10.358;2023-01-19T04:29:17;32.33;;;13.05;;
74523;SDS011;63074;44.696;10.358;2023-01-19T04:31:43;31.98;;;14.75;;
74523;SDS011;63074;44.696;10.358;2023-01-19T04:34:12;26.15;;;12.75;;
74523;SDS011;63074;44.696;10.358;2023-01-19T04:36:39;27.83;;;11.43;;
74523;SDS011;63074;44.696;10.358;2023-01-19T04:39:06;25.27;;;11.10;;
74523;SDS011;63074;44.696;10.358;2023-01-19T04:41:35;27.80;;;11.98;;
74523;SDS011;63074;44.696;10.358;2023-01-19T04:44:01;29.58;;;13.77;;
74523;SDS011;63074;44.696;10.358;2023-01-19T04:46:28;29.20;;;12.98;;
74523;SDS011;63074;44.696;10.358;2023-01-19T04:48:54;26.50;;;11.52;;
74523;SDS011;63074;44.696;10.358;2023-01-19T04:51:20;24.67;;;11.73;;
74523;SDS011;63074;44.696;10.358;2023-01-19T04:53:46;23.50;;;11.18;;
74523;SDS011;63074;44.696;10.358;2023-01-19T04:56:12;23.00;;;9.52;;
74523;SDS011;63074;44.696;10.358;2023-01-19T04:58:41;22.48;;;9.02;;
74523;SDS011;63074;44.696;10.358;2023-01-19T05:01:08;23.90;;;9.02;;
74523;SDS011;63074;44.696;10.358;2023-01-19T05:03:34;24.70;;;11.05;;
74523;SDS011;63074;44.696;10.358;2023-01-19T05:06:00;21.05;;;10.65;;
74523;SDS011;63074;44.696;10.358;2023-01-19T05:08:26;23.35;;;10.23;;
74523;SDS011;63074;44.696;10.358;2023-01-19T05:10:53;23.33;;;11.15;;
74523;SDS011;63074;44.696;10.358;2023-01-19T05:13:21;20.60;;;9.20;;
74523;SDS011;63074;44.696;10.358;2023-01-19T05:15:48;21.77;;;10.75;;
74523;SDS011;63074;44.696;10.358;2023-01-19T05:18:14;20.63;;;10.65;;
74523;SDS011;63074;44.696;10.358;2023-01-19T05:20:40;22.70;;;10.18;;
74523;SDS011;63074;44.696;10.358;2023-01-19T05:23:06;20.35;;;8.70;;
74523;SDS011;63074;44.696;10.358;2023-01-19T05:25:32;22.00;;;10.10;;
74523;SDS011;63074;44.696;10.358;2023-01-19T05:27:59;18.77;;;9.95;;
74523;SDS011;63074;44.696;10.358;2023-01-19T05:30:26;23.20;;;10.52;;
74523;SDS011;63074;44.696;10.358;2023-01-19T05:32:53;24.52;;;10.27;;
74523;SDS011;63074;44.696;10.358;2023-01-19T05:35:19;19.33;;;10.35;;
74523;SDS011;63074;44.696;10.358;2023-01-19T05:37:45;21.42;;;10.13;;
74523;SDS011;63074;44.696;10.358;2023-01-19T05:40:12;17.85;;;8.55;;
74523;SDS011;63074;44.696;10.358;2023-01-19T05:42:38;20.50;;;10.23;;
74523;SDS011;63074;44.696;10.358;2023-01-19T05:45:05;18.67;;;8.90;;
74523;SDS011;63074;44.696;10.358;2023-01-19T05:47:32;17.38;;;8.90;;
74523;SDS011;63074;44.696;10.358;2023-01-19T05:49:58;16.60;;;8.43;;
74523;SDS011;63074;44.696;10.358;2023-01-19T05:52:24;15.45;;;6.85;;
74523;SDS011;63074;44.696;10.358;2023-01-19T05:54:50;17.42;;;8.38;;
74523;SDS011;63074;44.696;10.358;2023-01-19T05:57:19;15.95;;;7.47;;
74523;SDS011;63074;44.696;10.358;2023-01-19T05:59:46;16.23;;;7.13;;
74523;SDS011;63074;44.696;10.358;2023-01-19T06:02:12;17.08;;;8.27;;
74523;SDS011;63074;44.696;10.358;2023-01-19T06:04:38;13.73;;;7.10;;
74523;SDS011;63074;44.696;10.358;2023-01-19T06:07:04;13.90;;;7.20;;
74523;SDS011;63074;44.696;10.358;2023-01-19T06:09:31;13.40;;;6.65;;
74523;SDS011;63074;44.696;10.358;2023-01-19T06:11:57;14.02;;;7.28;;
74523;SDS011;63074;44.696;10.358;2023-01-19T06:14:24;11.75;;;6.28;;
74523;SDS011;63074;44.696;10.358;2023-01-19T06:16:50;12.07;;;6.03;;
74523;SDS011;63074;44.696;10.358;2023-01-19T06:19:17;13.73;;;6.47;;
74523;SDS011;63074;44.696;10.358;2023-01-19T06:21:43;12.52;;;6.88;;
74523;SDS011;63074;44.696;10.358;2023-01-19T06:26:40;11.40;;;6.28;;
74523;SDS011;63074;44.696;10.358;2023-01-19T06:29:08;8.82;;;5.55;;
74523;SDS011;63074;44.696;10.358;2023-01-19T06:31:36;10.57;;;5.95;;
74523;SDS011;63074;44.696;10.358;2023-01-19T06:34:02;10.70;;;4.90;;
74523;SDS011;63074;44.696;10.358;2023-01-19T06:36:28;8.93;;;5.25;;
74523;SDS011;63074;44.696;10.358;2023-01-19T06:38:55;10.75;;;5.45;;
74523;SDS011;63074;44.696;10.358;2023-01-19T06:41:23;9.43;;;4.78;;
74523;SDS011;63074;44.696;10.358;2023-01-19T06:43:50;11.43;;;4.78;;
74523;SDS011;63074;44.696;10.358;2023-01-19T06:46:16;9.20;;;4.63;;
74523;SDS011;63074;44.696;10.358;2023-01-19T06:48:42;7.78;;;4.38;;
74523;SDS011;63074;44.696;10.358;2023-01-19T06:51:11;7.57;;;4.35;;
74523;SDS011;63074;44.696;10.358;2023-01-19T06:53:37;7.78;;;4.68;;
74523;SDS011;63074;44.696;10.358;2023-01-19T06:56:03;11.13;;;5.40;;
74523;SDS011;63074;44.696;10.358;2023-01-19T06:58:30;9.25;;;4.53;;
74523;SDS011;63074;44.696;10.358;2023-01-19T07:01:02;9.10;;;4.25;;
74523;SDS011;63074;44.696;10.358;2023-01-19T07:03:30;8.88;;;4.00;;
74523;SDS011;63074;44.696;10.358;2023-01-19T07:05:58;7.93;;;4.18;;
74523;SDS011;63074;44.696;10.358;2023-01-19T07:08:27;8.13;;;4.25;;
74523;SDS011;63074;44.696;10.358;2023-01-19T07:11:26;8.25;;;3.78;;
74523;SDS011;63074;44.696;10.358;2023-01-19T07:13:46;7.68;;;4.35;;
74523;SDS011;63074;44.696;10.358;2023-01-19T07:16:15;8.15;;;4.50;;
74523;SDS011;63074;44.696;10.358;2023-01-19T07:18:43;8.07;;;4.03;;
74523;SDS011;63074;44.696;10.358;2023-01-19T07:21:12;7.25;;;4.30;;
74523;SDS011;63074;44.696;10.358;2023-01-19T07:23:38;8.70;;;3.75;;
74523;SDS011;63074;44.696;10.358;2023-01-19T07:26:04;9.65;;;4.97;;
74523;SDS011;63074;44.696;10.358;2023-01-19T07:28:31;9.27;;;4.53;;
74523;SDS011;63074;44.696;10.358;2023-01-19T07:30:58;9.75;;;5.22;;
74523;SDS011;63074;44.696;10.358;2023-01-19T07:33:24;9.90;;;5.22;;
74523;SDS011;63074;44.696;10.358;2023-01-19T07:35:50;10.15;;;5.72;;
74523;SDS011;63074;44.696;10.358;2023-01-19T07:38:17;11.27;;;6.25;;
74523;SDS011;63074;44.696;10.358;2023-01-19T07:40:44;11.80;;;5.47;;
74523;SDS011;63074;44.696;10.358;2023-01-19T07:43:13;11.68;;;5.22;;
74523;SDS011;63074;44.696;10.358;2023-01-19T07:45:39;11.90;;;6.00;;
74523;SDS011;63074;44.696;10.358;2023-01-19T07:48:06;11.30;;;6.28;;
74523;SDS011;63074;44.696;10.358;2023-01-19T07:50:32;11.65;;;6.32;;
74523;SDS011;63074;44.696;10.358;2023-01-19T07:53:05;13.63;;;6.72;;
74523;SDS011;63074;44.696;10.358;2023-01-19T07:55:32;11.60;;;5.90;;
74523;SDS011;63074;44.696;10.358;2023-01-19T07:57:59;12.95;;;7.10;;
74523;SDS011;63074;44.696;10.358;2023-01-19T08:00:31;12.25;;;6.57;;
74523;SDS011;63074;44.696;10.358;2023-01-19T08:03:01;11.93;;;5.47;;
74523;SDS011;63074;44.696;10.358;2023-01-19T08:05:28;10.75;;;6.05;;
74523;SDS011;63074;44.696;10.358;2023-01-19T08:07:56;12.73;;;6.00;;
74523;SDS011;63074;44.696;10.358;2023-01-19T08:10:23;11.85;;;6.57;;
74523;SDS011;63074;44.696;10.358;2023-01-19T08:12:51;15.05;;;7.82;;
74523;SDS011;63074;44.696;10.358;2023-01-19T08:15:18;11.40;;;6.25;;
74523;SDS011;63074;44.696;10.358;2023-01-19T08:17:53;12.40;;;6.63;;
74523;SDS011;63074;44.696;10.358;2023-01-19T08:20:20;10.60;;;5.65;;
74523;SDS011;63074;44.696;10.358;2023-01-19T08:22:47;15.27;;;7.20;;
74523;SDS011;63074;44.696;10.358;2023-01-19T08:25:13;17.58;;;9.02;;
74523;SDS011;63074;44.696;10.358;2023-01-19T08:27:40;20.92;;;9.93;;
74523;SDS011;63074;44.696;10.358;2023-01-19T08:30:06;15.32;;;6.55;;
74523;SDS011;63074;44.696;10.358;2023-01-19T08:32:33;12.77;;;5.38;;
74523;SDS011;63074;44.696;10.358;2023-01-19T08:35:00;12.02;;;6.25;;
74523;SDS011;63074;44.696;10.358;2023-01-19T08:37:26;11.18;;;5.15;;
74523;SDS011;63074;44.696;10.358;2023-01-19T08:39:52;11.35;;;5.82;;
74523;SDS011;63074;44.696;10.358;2023-01-19T08:42:18;10.70;;;6.03;;
74523;SDS011;63074;44.696;10.358;2023-01-19T08:44:44;11.35;;;5.78;;
74523;SDS011;63074;44.696;10.358;2023-01-19T08:47:10;12.38;;;6.18;;
74523;SDS011;63074;44.696;10.358;2023-01-19T08:49:36;11.13;;;5.15;;
74523;SDS011;63074;44.696;10.358;2023-01-19T08:52:05;9.63;;;5.32;;
74523;SDS011;63074;44.696;10.358;2023-01-19T08:54:32;10.98;;;5.55;;
74523;SDS011;63074;44.696;10.358;2023-01-19T08:56:59;10.60;;;4.90;;
74523;SDS011;63074;44.696;10.358;2023-01-19T08:59:25;12.65;;;5.00;;
74523;SDS011;63074;44.696;10.358;2023-01-19T09:01:51;9.73;;;5.75;;
74523;SDS011;63074;44.696;10.358;2023-01-19T09:04:18;9.93;;;5.90;;
74523;SDS011;63074;44.696;10.358;2023-01-19T09:06:44;10.55;;;5.32;;
74523;SDS011;63074;44.696;10.358;2023-01-19T09:09:10;8.48;;;4.85;;
74523;SDS011;63074;44.696;10.358;2023-01-19T09:11:36;11.65;;;6.30;;
74523;SDS011;63074;44.696;10.358;2023-01-19T09:14:02;12.07;;;4.93;;
74523;SDS011;63074;44.696;10.358;2023-01-19T09:16:29;10.93;;;5.70;;
74523;SDS011;63074;44.696;10.358;2023-01-19T09:18:55;12.57;;;5.90;;
74523;SDS011;63074;44.696;10.358;2023-01-19T09:21:22;12.55;;;6.70;;
74523;SDS011;63074;44.696;10.358;2023-01-19T09:23:49;10.25;;;5.95;;
74523;SDS011;63074;44.696;10.358;2023-01-19T09:26:15;12.38;;;5.63;;
74523;SDS011;63074;44.696;10.358;2023-01-19T09:28:41;13.27;;;6.03;;
74523;SDS011;63074;44.696;10.358;2023-01-19T09:31:07;9.98;;;5.70;;
74523;SDS011;63074;44.696;10.358;2023-01-19T09:33:33;9.75;;;5.30;;
74523;SDS011;63074;44.696;10.358;2023-01-19T09:36:02;12.35;;;5.85;;
74523;SDS011;63074;44.696;10.358;2023-01-19T09:38:29;12.32;;;7.07;;
74523;SDS011;63074;44.696;10.358;2023-01-19T09:40:56;15.80;;;7.35;;
74523;SDS011;63074;44.696;10.358;2023-01-19T09:45:59;15.20;;;6.95;;
74523;SDS011;63074;44.696;10.358;2023-01-19T09:53:50;16.08;;;7.10;;
74523;SDS011;63074;44.696;10.358;2023-01-19T09:56:20;15.15;;;6.25;;
74523;SDS011;63074;44.696;10.358;2023-01-19T09:58:48;15.18;;;6.45;;
74523;SDS011;63074;44.696;10.358;2023-01-19T10:01:21;13.98;;;6.20;;
74523;SDS011;63074;44.696;10.358;2023-01-19T10:04:01;13.32;;;5.82;;
74523;SDS011;63074;44.696;10.358;2023-01-19T10:06:45;12.75;;;6.93;;
74523;SDS011;63074;44.696;10.358;2023-01-19T10:09:18;13.60;;;6.55;;
74523;SDS011;63074;44.696;10.358;2023-01-19T10:12:16;15.27;;;7.25;;
74523;SDS011;63074;44.696;10.358;2023-01-19T10:20:28;11.18;;;5.55;;
74523;SDS011;63074;44.696;10.358;2023-01-19T10:23:03;11.93;;;5.78;;
74523;SDS011;63074;44.696;10.358;2023-01-19T10:25:41;13.13;;;6.75;;
74523;SDS011;63074;44.696;10.358;2023-01-19T10:28:08;11.00;;;6.32;;
74523;SDS011;63074;44.696;10.358;2023-01-19T10:30:37;10.85;;;4.63;;
74523;SDS011;63074;44.696;10.358;2023-01-19T10:33:06;9.23;;;4.40;;
74523;SDS011;63074;44.696;10.358;2023-01-19T10:35:35;8.77;;;4.38;;
74523;SDS011;63074;44.696;10.358;2023-01-19T10:38:01;9.57;;;5.00;;
74523;SDS011;63074;44.696;10.358;2023-01-19T10:40:30;11.25;;;5.30;;
74523;SDS011;63074;44.696;10.358;2023-01-19T10:47:10;8.38;;;4.78;;
74523;SDS011;63074;44.696;10.358;2023-01-19T10:49:01;9.13;;;4.13;;
74523;SDS011;63074;44.696;10.358;2023-01-19T10:51:27;9.57;;;4.57;;
74523;SDS011;63074;44.696;10.358;2023-01-19T10:53:55;8.20;;;4.88;;
74523;SDS011;63074;44.696;10.358;2023-01-19T10:56:27;9.05;;;4.50;;
74523;SDS011;63074;44.696;10.358;2023-01-19T10:59:04;7.65;;;4.68;;
74523;SDS011;63074;44.696;10.358;2023-01-19T11:01:31;10.18;;;5.20;;
74523;SDS011;63074;44.696;10.358;2023-01-19T11:04:17;10.55;;;5.03;;
74523;SDS011;63074;44.696;10.358;2023-01-19T11:06:47;9.73;;;4.60;;
74523;SDS011;63074;44.696;10.358;2023-01-19T11:09:17;9.18;;;5.05;;
74523;SDS011;63074;44.696;10.358;2023-01-19T11:11:46;12.13;;;5.55;;
74523;SDS011;63074;44.696;10.358;2023-01-19T11:14:16;10.07;;;5.03;;
74523;SDS011;63074;44.696;10.358;2023-01-19T11:16:46;10.02;;;5.93;;
74523;SDS011;63074;44.696;10.358;2023-01-19T11:19:19;11.27;;;5.38;;
74523;SDS011;63074;44.696;10.358;2023-01-19T11:22:09;11.18;;;5.72;;
74523;SDS011;63074;44.696;10.358;2023-01-19T11:24:45;9.57;;;5.50;;
74523;SDS011;63074;44.696;10.358;2023-01-19T11:27:17;10.20;;;5.38;;
74523;SDS011;63074;44.696;10.358;2023-01-19T11:29:46;11.30;;;6.10;;
74523;SDS011;63074;44.696;10.358;2023-01-19T11:32:21;12.80;;;5.90;;
74523;SDS011;63074;44.696;10.358;2023-01-19T11:34:47;10.50;;;4.97;;
74523;SDS011;63074;44.696;10.358;2023-01-19T11:39:50;8.50;;;4.43;;
74523;SDS011;63074;44.696;10.358;2023-01-19T11:42:19;10.57;;;5.00;;
74523;SDS011;63074;44.696;10.358;2023-01-19T11:44:46;11.32;;;4.82;;
74523;SDS011;63074;44.696;10.358;2023-01-19T11:58:03;6.55;;;3.95;;
74523;SDS011;63074;44.696;10.358;2023-01-19T12:01:04;7.70;;;3.95;;
74523;SDS011;63074;44.696;10.358;2023-01-19T12:06:05;5.82;;;3.50;;
74523;SDS011;63074;44.696;10.358;2023-01-19T12:08:44;6.82;;;3.70;;
74523;SDS011;63074;44.696;10.358;2023-01-19T12:11:21;6.70;;;3.22;;
74523;SDS011;63074;44.696;10.358;2023-01-19T12:13:56;6.47;;;3.22;;
74523;SDS011;63074;44.696;10.358;2023-01-19T12:16:25;7.40;;;3.42;;
74523;SDS011;63074;44.696;10.358;2023-01-19T12:19:04;6.88;;;3.60;;
74523;SDS011;63074;44.696;10.358;2023-01-19T12:21:40;6.88;;;2.97;;
74523;SDS011;63074;44.696;10.358;2023-01-19T12:26:48;6.25;;;3.25;;
74523;SDS011;63074;44.696;10.358;2023-01-19T12:29:28;5.03;;;2.75;;
74523;SDS011;63074;44.696;10.358;2023-01-19T12:34:50;5.28;;;2.88;;
74523;SDS011;63074;44.696;10.358;2023-01-19T12:37:27;4.38;;;2.58;;
74523;SDS011;63074;44.696;10.358;2023-01-19T12:39:54;5.75;;;3.20;;
74523;SDS011;63074;44.696;10.358;2023-01-19T12:42:22;5.57;;;4.00;;
74523;SDS011;63074;44.696;10.358;2023-01-19T12:44:50;5.25;;;3.10;;
74523;SDS011;63074;44.696;10.358;2023-01-19T12:47:48;5.28;;;2.70;;
74523;SDS011;63074;44.696;10.358;2023-01-19T12:50:16;4.95;;;2.47;;
74523;SDS011;63074;44.696;10.358;2023-01-19T12:52:48;6.50;;;3.00;;
74523;SDS011;63074;44.696;10.358;2023-01-19T13:00:49;6.20;;;3.05;;
74523;SDS011;63074;44.696;10.358;2023-01-19T13:03:43;5.57;;;2.58;;
74523;SDS011;63074;44.696;10.358;2023-01-19T13:09:31;3.88;;;1.95;;
74523;SDS011;63074;44.696;10.358;2023-01-19T13:14:45;6.03;;;3.00;;
74523;SDS011;63074;44.696;10.358;2023-01-19T13:17:23;4.43;;;2.33;;
74523;SDS011;63074;44.696;10.358;2023-01-19T13:19:57;6.03;;;3.25;;
74523;SDS011;63074;44.696;10.358;2023-01-19T13:25:40;5.63;;;2.90;;
74523;SDS011;63074;44.696;10.358;2023-01-19T13:28:15;5.28;;;2.85;;
74523;SDS011;63074;44.696;10.358;2023-01-19T13:30:53;4.72;;;2.33;;
74523;SDS011;63074;44.696;10.358;2023-01-19T13:33:23;5.60;;;2.50;;
74523;SDS011;63074;44.696;10.358;2023-01-19T13:35:53;6.07;;;3.53;;
74523;SDS011;63074;44.696;10.358;2023-01-19T13:40:50;5.10;;;3.00;;
74523;SDS011;63074;44.696;10.358;2023-01-19T13:43:20;5.43;;;2.95;;
74523;SDS011;63074;44.696;10.358;2023-01-19T13:45:56;8.15;;;2.83;;
74523;SDS011;63074;44.696;10.358;2023-01-19T13:48:23;6.03;;;3.33;;
74523;SDS011;63074;44.696;10.358;2023-01-19T13:50:57;4.97;;;3.33;;
74523;SDS011;63074;44.696;10.358;2023-01-19T13:53:33;3.85;;;2.63;;
74523;SDS011;63074;44.696;10.358;2023-01-19T13:59:05;5.88;;;3.28;;
74523;SDS011;63074;44.696;10.358;2023-01-19T14:01:39;4.38;;;2.80;;
74523;SDS011;63074;44.696;10.358;2023-01-19T14:06:57;3.72;;;1.90;;
74523;SDS011;63074;44.696;10.358;2023-01-19T14:09:27;4.97;;;2.70;;
74523;SDS011;63074;44.696;10.358;2023-01-19T14:12:04;4.70;;;2.88;;
74523;SDS011;63074;44.696;10.358;2023-01-19T14:14:38;4.57;;;2.97;;
74523;SDS011;63074;44.696;10.358;2023-01-19T14:17:29;5.22;;;3.08;;
74523;SDS011;63074;44.696;10.358;2023-01-19T14:19:59;4.72;;;2.88;;
74523;SDS011;63074;44.696;10.358;2023-01-19T14:25:25;4.63;;;2.60;;
74523;SDS011;63074;44.696;10.358;2023-01-19T14:30:54;5.00;;;3.00;;
74523;SDS011;63074;44.696;10.358;2023-01-19T14:33:38;4.47;;;2.88;;
74523;SDS011;63074;44.696;10.358;2023-01-19T14:38:57;4.72;;;3.22;;
74523;SDS011;63074;44.696;10.358;2023-01-19T14:41:38;5.55;;;3.70;;
74523;SDS011;63074;44.696;10.358;2023-01-19T14:44:24;5.13;;;2.80;;
74523;SDS011;63074;44.696;10.358;2023-01-19T14:46:51;5.85;;;2.40;;
74523;SDS011;63074;44.696;10.358;2023-01-19T14:49:24;4.55;;;3.13;;
74523;SDS011;63074;44.696;10.358;2023-01-19T14:51:51;6.63;;;3.70;;
74523;SDS011;63074;44.696;10.358;2023-01-19T14:54:17;6.60;;;3.50;;
74523;SDS011;63074;44.696;10.358;2023-01-19T14:56:53;6.07;;;3.67;;
74523;SDS011;63074;44.696;10.358;2023-01-19T14:59:19;7.78;;;4.30;;
74523;SDS011;63074;44.696;10.358;2023-01-19T15:01:45;5.03;;;2.72;;
74523;SDS011;63074;44.696;10.358;2023-01-19T15:04:11;6.15;;;3.08;;
74523;SDS011;63074;44.696;10.358;2023-01-19T15:06:40;5.32;;;3.85;;
74523;SDS011;63074;44.696;10.358;2023-01-19T15:09:13;5.03;;;2.78;;
74523;SDS011;63074;44.696;10.358;2023-01-19T15:11:40;4.82;;;2.40;;
74523;SDS011;63074;44.696;10.358;2023-01-19T15:14:09;4.80;;;2.78;;
74523;SDS011;63074;44.696;10.358;2023-01-19T15:16:40;4.40;;;2.58;;
74523;SDS011;63074;44.696;10.358;2023-01-19T15:19:11;4.45;;;3.10;;
74523;SDS011;63074;44.696;10.358;2023-01-19T15:21:39;4.60;;;2.42;;
74523;SDS011;63074;44.696;10.358;2023-01-19T15:24:08;4.38;;;2.72;;
74523;SDS011;63074;44.696;10.358;2023-01-19T15:26:36;5.65;;;3.30;;
74523;SDS011;63074;44.696;10.358;2023-01-19T15:29:25;6.18;;;3.72;;
74523;SDS011;63074;44.696;10.358;2023-01-19T15:31:51;6.22;;;3.15;;
74523;SDS011;63074;44.696;10.358;2023-01-19T15:34:17;5.32;;;3.80;;
74523;SDS011;63074;44.696;10.358;2023-01-19T15:36:43;5.05;;;3.10;;
74523;SDS011;63074;44.696;10.358;2023-01-19T15:39:09;5.35;;;3.60;;
74523;SDS011;63074;44.696;10.358;2023-01-19T15:41:36;5.28;;;3.67;;
74523;SDS011;63074;44.696;10.358;2023-01-19T15:44:08;5.63;;;3.40;;
74523;SDS011;63074;44.696;10.358;2023-01-19T15:46:35;3.58;;;3.00;;
74523;SDS011;63074;44.696;10.358;2023-01-19T15:49:01;4.85;;;2.78;;
74523;SDS011;63074;44.696;10.358;2023-01-19T15:51:29;4.35;;;2.95;;
74523;SDS011;63074;44.696;10.358;2023-01-19T15:53:56;5.65;;;3.28;;
74523;SDS011;63074;44.696;10.358;2023-01-19T15:56:26;5.28;;;2.97;;
74523;SDS011;63074;44.696;10.358;2023-01-19T15:58:55;4.85;;;2.38;;
74523;SDS011;63074;44.696;10.358;2023-01-19T16:01:23;4.57;;;3.28;;
74523;SDS011;63074;44.696;10.358;2023-01-19T16:03:56;4.68;;;2.63;;
74523;SDS011;63074;44.696;10.358;2023-01-19T16:08:56;3.92;;;2.83;;